Pagrindinis puslapis
METAR-TAF:

METAR-TAF

Oro uostai :

Port Alsworth, Aliaska, Jungtinės Amerikos Valstijos

platuma: 60-12N, ilguma: 154-19W, Aukštis: 85 m

Dabartinis oras

Ataskaita buvo paskelbta 3 valandos ir 27 minutes, ne 16:58 UTC
Vėjas 8 kt iš Šiaurės Rytų
Temperatūra 1°C
Drėgmė 86%
Slėgis 1017 hPa
Matomumas: 16.1 km
Su prošvaistėmis ne aukštis 4000 ft
Apsiniaukę ne aukštis 6000 ft

METAR: PALJ 281658Z 04008KT 10SM BKN040 OVC060 01/M01 A3004 RMK FIRST REPORT NOSPECI

Laikas: 12:25 (20:25 UTC)


TAF: trūkstamas

Orai ataskaitas ir orų prognozės (METAR, TAF).

turimą stotys yra geltonos ir raudonos taškus žemėlapyje.

Perkelti pele per norėdami pamatyti stoties vardą.

Tada spustelėkite, norėdami matyti oro stebėjimo ir prognozės.

Norėdami pakeisti žemėlapį: spustelėkite ant žalios mygtukų su juodo kryžiaus žemyn,; žalią mygtuką su brūkšneliu, jei norite nutolinti; arba žalių rodyklių gretimoms žemėlapius.


METAR-TAF: